Time;durP1;ratioP1;P1;durP2;ratioP2;P2;SDS_P1;SDS_P2;PMS_P1;PMS_P2;Temp;Humidity;BMP_temperature;BMP_pressure;BME280_temperature;BME280_humidity;BME280_pressure;Samples;Min_cycle;Max_cycle;Signal;HPM_P1;HPM_P2
2023/05/09 00:00:41;;;;;;;0.40;0.40;;;;;;;9.55;50.94;101382.06;5006339;28;20070;-69
2023/05/09 00:03:07;;;;;;;0.40;0.40;;;;;;;9.67;50.47;101377.03;5017250;23;20050;-67
2023/05/09 00:05:32;;;;;;;0.43;0.43;;;;;;;9.70;50.23;101375.28;5017719;23;20042;-65
2023/05/09 00:07:58;;;;;;;0.40;0.40;;;;;;;9.47;51.11;101381.09;5012792;23;20058;-69
2023/05/09 00:10:23;;;;;;;0.50;0.50;;;;;;;9.87;49.88;101371.16;5010637;23;20059;-67
2023/05/09 00:12:48;;;;;;;0.40;0.40;;;;;;;9.63;50.37;101370.03;5005823;28;20046;-68
2023/05/09 00:15:14;;;;;;;0.30;0.30;;;;;;;9.47;50.81;101368.16;5006325;28;20363;-68
2023/05/09 00:17:40;;;;;;;0.40;0.40;;;;;;;9.18;51.53;101365.19;5006881;28;20041;-67
2023/05/09 00:20:10;;;;;;;0.40;0.40;;;;;;;9.19;51.35;101368.66;5006874;28;20394;-67
2023/05/09 00:22:35;;;;;;;0.40;0.40;;;;;;;9.42;50.59;101360.31;4989564;28;20014;-67
2023/05/09 00:25:01;;;;;;;0.40;0.40;;;;;;;9.76;49.47;101365.88;4989428;28;20026;-66
2023/05/09 00:27:29;;;;;;;0.40;0.40;;;;;;;9.64;50.20;101374.41;5006938;28;20105;-66
2023/05/09 00:29:55;;;;;;;0.40;0.40;;;;;;;9.28;50.59;101353.22;5007077;28;20109;-67
2023/05/09 00:32:20;;;;;;;0.40;0.40;;;;;;;9.53;50.04;101357.84;5013103;23;20065;-65
2023/05/09 00:34:45;;;;;;;0.30;0.30;;;;;;;9.56;49.94;101360.47;5005471;28;20027;-67
2023/05/09 00:37:11;;;;;;;0.45;0.45;;;;;;;9.59;49.98;101357.91;5005932;28;20390;-64
2023/05/09 00:39:36;;;;;;;0.40;0.40;;;;;;;9.42;49.98;101332.66;5013169;23;20093;-66
2023/05/09 00:42:02;;;;;;;0.40;0.40;;;;;;;9.44;50.27;101355.16;5018997;23;20065;-69
2023/05/09 00:47:23;;;;;;;0.40;0.40;;;;;;;9.39;50.06;101355.94;4986219;28;20098;-68
2023/05/09 00:49:49;;;;;;;0.40;0.40;;;;;;;9.14;50.63;101334.94;4968113;28;20042;-68
2023/05/09 00:52:14;;;;;;;0.40;0.40;;;;;;;9.33;50.00;101348.09;4986953;28;20055;-68
2023/05/09 00:54:40;;;;;;;0.40;0.40;;;;;;;9.16;50.22;101333.25;4987025;28;20029;-66
2023/05/09 00:57:05;;;;;;;0.40;0.40;;;;;;;9.13;50.37;101332.31;4986900;28;20030;-66
2023/05/09 00:59:31;;;;;;;0.55;0.55;;;;;;;9.16;50.47;101335.84;4969340;28;20042;-67
2023/05/09 01:01:56;;;;;;;0.40;0.40;;;;;;;9.12;50.28;101335.78;4986880;28;20026;-68
2023/05/09 01:04:23;;;;;;;0.40;0.40;;;;;;;9.35;49.34;101332.56;4995901;23;20049;-69
2023/05/09 01:07:08;;;;;;;13.25;3.72;;;;;;;9.23;49.93;101333.31;5006245;23;20035;-66
2023/05/09 01:09:52;;;;;;;0.93;0.93;;;;;;;9.35;49.61;101335.16;5005033;28;20030;-66
2023/05/09 01:12:29;;;;;;;0.40;0.40;;;;;;;9.25;49.68;101339.38;4997029;23;20058;-68
2023/05/09 01:15:16;;;;;;;0.40;0.40;;;;;;;9.18;49.62;101331.50;4985911;28;20018;-69
2023/05/09 01:18:06;;;;;;;0.50;0.50;;;;;;;8.94;50.11;101329.50;4986266;28;20027;-69
2023/05/09 01:20:38;;;;;;;0.40;0.40;;;;;;;8.97;49.96;101326.94;4986352;28;20031;-69
2023/05/09 01:23:32;;;;;;;0.40;0.40;;;;;;;8.98;50.01;101327.84;4986300;28;20280;-68
2023/05/09 01:26:07;;;;;;;0.40;0.40;;;;;;;8.88;50.26;101306.97;4968746;28;20022;-69
2023/05/09 01:29:08;;;;;;;0.40;0.40;;;;;;;9.21;49.41;101327.22;4986281;28;20030;-68
2023/05/09 01:31:39;;;;;;;0.40;0.40;;;;;;;8.92;49.83;101316.53;4926228;29;20028;-68
2023/05/09 01:34:06;;;;;;;0.45;0.45;;;;;;;8.82;49.90;101308.63;4925402;29;20240;-68
2023/05/09 01:36:33;;;;;;;0.40;0.40;;;;;;;9.04;49.35;101310.63;4939319;23;20036;-67
2023/05/09 01:39:03;;;;;;;0.40;0.40;;;;;;;8.96;49.42;101301.88;5002952;28;20042;-66
2023/05/09 01:41:33;;;;;;;0.40;0.40;;;;;;;8.81;49.69;101302.56;5004467;28;20050;-68
2023/05/09 01:44:02;;;;;;;0.40;0.40;;;;;;;9.12;48.57;101299.50;5015890;23;20058;-68
2023/05/09 01:46:28;;;;;;;0.30;0.30;;;;;;;8.97;49.03;101297.59;4987118;28;20022;-68
2023/05/09 01:48:55;;;;;;;0.40;0.40;;;;;;;8.83;49.33;101306.06;5005520;28;20026;-69
2023/05/09 01:51:21;;;;;;;0.40;0.40;;;;;;;9.08;48.46;101308.94;5011029;23;20058;-67
2023/05/09 01:53:48;;;;;;;0.40;0.40;;;;;;;8.97;48.77;101295.00;5014944;23;20465;-65
2023/05/09 01:56:15;;;;;;;0.40;0.40;;;;;;;8.90;48.98;101294.03;5011597;23;20053;-69
2023/05/09 01:58:41;;;;;;;0.40;0.40;;;;;;;8.96;48.52;101282.91;5003604;28;20019;-68
2023/05/09 02:01:08;;;;;;;0.40;0.40;;;;;;;9.09;48.44;101286.53;5003156;28;20023;-68
2023/05/09 02:03:36;;;;;;;0.40;0.40;;;;;;;9.14;48.17;101297.78;5018330;23;20058;-68
2023/05/09 02:06:03;;;;;;;0.93;0.93;;;;;;;9.26;47.61;101271.16;4984193;28;20511;-69
2023/05/09 02:08:30;;;;;;;0.40;0.40;;;;;;;9.15;47.91;101284.84;4983125;28;20027;-69
2023/05/09 02:10:55;;;;;;;0.40;0.40;;;;;;;8.90;48.36;101284.56;4983721;28;20380;-69
2023/05/09 02:13:21;;;;;;;0.50;0.50;;;;;;;9.11;48.02;101288.25;4984318;23;20077;-66
2023/05/09 02:15:46;;;;;;;0.40;0.40;;;;;;;8.89;48.34;101274.19;5017539;23;20053;-66
2023/05/09 02:18:12;;;;;;;0.40;0.40;;;;;;;8.96;48.39;101277.72;5010284;23;20042;-69
2023/05/09 02:20:38;;;;;;;0.40;0.40;;;;;;;8.74;48.75;101273.13;5003601;28;20023;-68
2023/05/09 02:23:04;;;;;;;0.40;0.40;;;;;;;8.79;48.66;101275.78;5004654;28;20050;-68
2023/05/09 02:25:31;;;;;;;0.40;0.40;;;;;;;8.80;48.69;101265.44;5012807;23;20058;-66
2023/05/09 02:27:58;;;;;;;0.40;0.40;;;;;;;8.91;48.29;101270.75;5003366;28;20438;-67
2023/05/09 02:30:25;;;;;;;0.40;0.40;;;;;;;8.73;48.72;101265.34;5004057;28;20018;-67
2023/05/09 02:32:57;;;;;;;0.40;0.40;;;;;;;8.76;48.67;101265.38;5004485;28;20023;-66
2023/05/09 02:35:26;;;;;;;0.50;0.50;;;;;;;8.84;48.53;101268.06;5004212;28;20247;-66
2023/05/09 02:37:52;;;;;;;0.40;0.40;;;;;;;8.61;48.91;101266.91;5012211;23;20050;-64
2023/05/09 02:40:19;;;;;;;0.50;0.50;;;;;;;8.76;48.55;101253.31;5001208;28;20116;-65
2023/05/09 02:42:45;;;;;;;0.40;0.40;;;;;;;8.59;48.92;101260.00;5003490;28;20025;-65
2023/05/09 02:45:10;;;;;;;0.40;0.40;;;;;;;8.77;48.66;101251.59;5010427;23;20034;-65
2023/05/09 02:47:36;;;;;;;0.40;0.40;;;;;;;8.89;48.15;101253.47;5013819;23;20057;-68
2023/05/09 02:50:03;;;;;;;0.30;0.30;;;;;;;8.66;48.78;101246.25;5000296;28;20022;-69
2023/05/09 02:52:28;;;;;;;0.40;0.40;;;;;;;8.78;48.21;101248.16;5003727;28;20114;-69
2023/05/09 02:54:53;;;;;;;0.38;0.38;;;;;;;8.75;48.42;101249.00;5003954;28;20034;-69
2023/05/09 02:57:20;;;;;;;0.40;0.40;;;;;;;8.80;48.35;101247.31;5017055;23;20029;-68
2023/05/09 02:59:45;;;;;;;0.40;0.40;;;;;;;8.62;48.78;101237.63;4985645;28;20038;-68
2023/05/09 03:02:11;;;;;;;0.40;0.40;;;;;;;8.70;48.49;101244.59;4986142;28;20026;-69
2023/05/09 03:04:36;;;;;;;0.40;0.40;;;;;;;8.78;48.38;101242.97;5003981;28;20051;-69
2023/05/09 03:07:02;;;;;;;0.40;0.40;;;;;;;8.86;48.01;101231.00;5004286;28;20029;-69
2023/05/09 03:09:28;;;;;;;1.67;1.02;;;;;;;8.61;48.63;101233.25;5007642;28;20057;-68
2023/05/09 03:11:55;;;;;;;0.40;0.40;;;;;;;8.41;49.12;101232.97;5017448;23;20050;-67
2023/05/09 03:14:20;;;;;;;0.40;0.40;;;;;;;8.29;49.66;101216.41;5007002;28;20057;-66
2023/05/09 03:16:45;;;;;;;0.50;0.50;;;;;;;8.50;49.23;101216.72;5013948;23;20117;-65
2023/05/09 03:19:11;;;;;;;0.40;0.40;;;;;;;8.72;48.75;101219.59;5007097;28;20025;-66
2023/05/09 03:21:36;;;;;;;0.77;0.77;;;;;;;8.58;49.13;101219.44;5013742;23;20054;-68
2023/05/09 03:24:03;;;;;;;0.40;0.40;;;;;;;8.49;49.42;101210.66;5007126;28;20054;-67
2023/05/09 03:26:29;;;;;;;0.40;0.40;;;;;;;8.79;48.74;101213.63;5007468;28;20034;-67
2023/05/09 03:28:54;;;;;;;0.40;0.40;;;;;;;8.91;48.36;101215.50;5007048;28;20030;-66
2023/05/09 03:31:20;;;;;;;0.40;0.40;;;;;;;8.89;48.47;101209.44;5020408;23;20046;-66
2023/05/09 03:33:45;;;;;;;0.50;0.50;;;;;;;9.37;47.52;101217.72;5020060;23;20058;-64
2023/05/09 03:36:11;;;;;;;0.40;0.40;;;;;;;9.22;47.74;101205.47;5013131;23;20231;-67
2023/05/09 03:38:36;;;;;;;0.40;0.40;;;;;;;9.54;47.40;101211.81;5006877;28;20066;-67
2023/05/09 03:41:02;;;;;;;0.40;0.40;;;;;;;9.76;46.30;101193.88;4989909;28;20026;-68
2023/05/09 03:43:28;;;;;;;0.30;0.30;;;;;;;9.74;46.25;101200.75;5007805;28;20387;-67
2023/05/09 03:45:53;;;;;;;0.50;0.50;;;;;;;9.45;46.80;101199.66;5014167;23;20056;-67
2023/05/09 03:48:18;;;;;;;0.40;0.40;;;;;;;9.38;47.18;101201.31;5019443;23;20057;-66
2023/05/09 03:50:44;;;;;;;0.40;0.40;;;;;;;9.35;47.08;101192.63;5013125;23;20109;-67
2023/05/09 03:53:09;;;;;;;0.40;0.40;;;;;;;9.55;46.94;101200.59;5017457;23;20066;-67
2023/05/09 03:55:35;;;;;;;0.40;0.40;;;;;;;9.25;47.68;101191.69;5013182;23;20050;-67
2023/05/09 03:58:00;;;;;;;0.40;0.40;;;;;;;9.30;47.66;101200.38;4989388;28;20054;-68
2023/05/09 04:00:26;;;;;;;0.40;0.40;;;;;;;9.30;47.76;101195.19;5007291;28;20026;-68
2023/05/09 04:02:52;;;;;;;0.38;0.38;;;;;;;9.45;47.55;101188.41;5007409;28;20026;-70
2023/05/09 04:05:17;;;;;;;0.40;0.40;;;;;;;9.60;47.12;101180.75;5006943;28;20113;-69
2023/05/09 04:07:43;;;;;;;0.40;0.40;;;;;;;9.71;46.78;101190.34;5007259;28;20368;-68
2023/05/09 04:10:09;;;;;;;1.02;1.02;;;;;;;9.83;46.43;101176.59;4989473;28;20026;-71
2023/05/09 04:12:34;;;;;;;0.40;0.40;;;;;;;9.96;46.35;101175.84;4989711;28;20034;-68
2023/05/09 04:15:22;;;;;;;0.30;0.30;;;;;;;10.17;45.92;101188.06;4996457;23;20027;-68
2023/05/09 04:17:47;;;;;;;0.35;0.35;;;;;;;10.11;45.67;101185.44;4987660;28;20122;-66
2023/05/09 04:20:13;;;;;;;0.40;0.40;;;;;;;10.01;46.02;101174.16;4993658;23;20031;-67
2023/05/09 04:22:38;;;;;;;0.40;0.40;;;;;;;9.95;46.21;101175.84;5005867;28;20037;-68
2023/05/09 04:25:04;;;;;;;0.40;0.40;;;;;;;9.71;46.78;101188.66;4996762;23;20064;-67
2023/05/09 04:27:29;;;;;;;0.40;0.40;;;;;;;9.60;47.04;101180.75;5019553;23;20069;-68
2023/05/09 04:29:55;;;;;;;0.40;0.40;;;;;;;9.59;47.25;101175.56;5012362;23;20043;-67
2023/05/09 04:32:21;;;;;;;0.40;0.40;;;;;;;9.70;46.96;101186.00;4987911;28;20030;-67
2023/05/09 04:34:46;;;;;;;0.40;0.40;;;;;;;9.36;47.85;101200.41;5019732;23;20057;-69
2023/05/09 04:37:12;;;;;;;0.40;0.40;;;;;;;9.42;47.76;101174.56;5006055;28;20178;-70
2023/05/09 04:39:37;;;;;;;0.40;0.40;;;;;;;9.37;48.13;101176.25;4988808;28;20131;-66
2023/05/09 04:42:03;;;;;;;0.70;0.70;;;;;;;9.34;48.31;101184.00;4992924;23;20059;-65
2023/05/09 04:44:54;;;;;;;0.40;0.40;;;;;;;9.59;48.05;101181.63;5018631;23;20078;-65
2023/05/09 04:47:20;;;;;;;0.40;0.40;;;;;;;9.54;47.98;101172.94;4974560;23;20039;-66
2023/05/09 04:49:45;;;;;;;0.40;0.40;;;;;;;9.65;47.97;101173.88;4985819;28;20026;-67
2023/05/09 04:52:10;;;;;;;0.40;0.40;;;;;;;9.85;47.33;101180.97;4996816;23;20500;-65
2023/05/09 04:54:36;;;;;;;0.98;0.95;;;;;;;9.77;47.68;101169.66;5011194;23;20039;-66
2023/05/09 04:57:02;;;;;;;0.40;0.40;;;;;;;9.94;47.59;101166.28;5011632;23;20112;-69
2023/05/09 04:59:27;;;;;;;0.40;0.40;;;;;;;9.91;47.62;101168.03;5005235;28;20022;-69
2023/05/09 05:01:53;;;;;;;0.40;0.40;;;;;;;9.85;47.83;101168.00;5002406;28;20022;-69
2023/05/09 05:04:18;;;;;;;0.38;0.38;;;;;;;9.90;47.87;101165.44;5005568;28;20522;-68
2023/05/09 05:06:43;;;;;;;0.40;0.40;;;;;;;9.92;48.03;101155.91;4988306;28;20509;-67
2023/05/09 05:09:09;;;;;;;0.40;0.40;;;;;;;9.93;48.10;101149.88;5004998;28;20022;-69
2023/05/09 05:11:34;;;;;;;0.40;0.40;;;;;;;10.04;47.87;101162.91;4988335;28;20121;-67
2023/05/09 05:14:00;;;;;;;0.30;0.30;;;;;;;10.25;47.80;101156.09;4988260;28;20022;-68
2023/05/09 05:16:25;;;;;;;0.40;0.40;;;;;;;9.94;48.40;101161.09;4988466;28;20066;-69
2023/05/09 05:18:50;;;;;;;0.40;0.40;;;;;;;10.16;48.05;101154.31;5012281;23;20251;-66
2023/05/09 05:21:16;;;;;;;0.40;0.40;;;;;;;10.22;48.15;101141.41;5004712;28;20033;-65
2023/05/09 05:23:41;;;;;;;0.40;0.40;;;;;;;10.28;47.87;101135.38;5011397;23;20061;-70
2023/05/09 05:26:07;;;;;;;0.30;0.30;;;;;;;10.29;48.01;101147.47;4998465;23;20059;-66
2023/05/09 05:28:32;;;;;;;0.45;0.45;;;;;;;10.46;47.64;101149.28;4998358;23;20053;-68
2023/05/09 05:30:57;;;;;;;0.40;0.40;;;;;;;10.54;47.55;101148.47;5004646;28;20024;-69
2023/05/09 05:33:23;;;;;;;0.40;0.40;;;;;;;10.60;47.50;101134.66;5005424;28;20037;-69
2023/05/09 05:35:49;;;;;;;0.35;0.35;;;;;;;10.71;47.37;101141.59;5005286;28;20294;-68
2023/05/09 05:38:14;;;;;;;0.60;0.60;;;;;;;10.83;47.01;101138.19;5005671;28;20044;-70
2023/05/09 05:40:39;;;;;;;0.30;0.30;;;;;;;10.87;47.22;101133.00;5005676;28;20050;-69
2023/05/09 05:43:05;;;;;;;0.30;0.30;;;;;;;11.08;46.86;101146.00;4988131;28;20029;-68
2023/05/09 05:45:30;;;;;;;1.15;1.15;;;;;;;11.31;46.38;101135.63;5005129;28;20073;-71
2023/05/09 05:47:56;;;;;;;0.30;0.30;;;;;;;11.13;46.82;101137.34;5005525;28;20028;-69
2023/05/09 05:50:21;;;;;;;0.40;0.40;;;;;;;11.29;46.86;101139.97;4994527;23;20345;-66
2023/05/09 05:52:47;;;;;;;0.40;0.40;;;;;;;11.43;46.75;101137.38;4985178;28;20043;-65
2023/05/09 05:55:12;;;;;;;0.32;0.32;;;;;;;11.55;46.62;101102.69;4985592;28;20023;-66
2023/05/09 05:57:38;;;;;;;0.40;0.40;;;;;;;12.09;45.87;101132.94;5006760;23;20042;-65
2023/05/09 06:00:08;;;;;;;0.30;0.30;;;;;;;12.42;44.88;101124.16;4992304;23;20154;-69
2023/05/09 06:02:33;;;;;;;0.50;0.50;;;;;;;12.75;44.19;101124.84;5004146;28;20026;-70
2023/05/09 06:04:59;;;;;;;0.30;0.30;;;;;;;12.80;44.28;101130.91;5005039;28;20086;-69
2023/05/09 06:07:24;;;;;;;0.30;0.30;;;;;;;13.08;43.69;101117.69;5005512;28;20054;-70
2023/05/09 06:09:50;;;;;;;0.30;0.30;;;;;;;13.71;42.08;101117.19;5004044;28;20022;-70
2023/05/09 06:12:15;;;;;;;0.30;0.30;;;;;;;13.87;41.96;101110.06;5005317;28;20113;-70
2023/05/09 06:14:42;;;;;;;0.30;0.30;;;;;;;13.92;41.77;101115.22;5004307;28;20034;-69
2023/05/09 06:17:07;;;;;;;0.93;0.93;;;;;;;14.27;40.81;101111.34;5005031;28;20026;-72
2023/05/09 06:19:33;;;;;;;4.20;3.15;;;;;;;14.03;41.37;101108.13;5003249;28;20024;-70
2023/05/09 06:21:58;;;;;;;0.30;0.30;;;;;;;14.06;42.27;101102.00;5005160;28;20102;-69
2023/05/09 06:24:24;;;;;;;0.32;0.32;;;;;;;14.43;42.39;101101.56;5003727;28;20457;-70
2023/05/09 06:26:49;;;;;;;0.35;0.35;;;;;;;15.12;40.74;101090.13;5005058;28;20077;-69
2023/05/09 06:29:15;;;;;;;0.40;0.40;;;;;;;15.64;38.25;101095.31;5003725;28;20026;-69
2023/05/09 06:31:41;;;;;;;0.75;0.75;;;;;;;15.64;37.62;101086.63;5005079;28;20380;-69
2023/05/09 06:34:06;;;;;;;0.30;0.30;;;;;;;15.10;39.78;101092.75;5004797;28;20025;-70
2023/05/09 06:36:32;;;;;;;2.92;1.25;;;;;;;15.38;40.13;101098.41;5004886;28;20032;-70
2023/05/09 06:38:58;;;;;;;0.20;0.20;;;;;;;15.84;39.94;101094.09;5004980;28;20386;-69
2023/05/09 06:41:24;;;;;;;0.20;0.20;;;;;;;16.52;37.46;101094.44;5004836;28;20030;-70
2023/05/09 06:43:50;;;;;;;0.30;0.30;;;;;;;16.59;36.76;101095.19;5004076;28;20029;-70
2023/05/09 06:46:16;;;;;;;0.30;0.30;;;;;;;16.37;36.92;101100.03;5004882;28;20327;-69
2023/05/09 06:48:41;;;;;;;0.30;0.30;;;;;;;16.37;38.09;101079.94;5004797;28;20045;-70
2023/05/09 06:51:07;;;;;;;0.20;0.20;;;;;;;16.83;37.29;101079.78;5004701;28;20022;-70
2023/05/09 06:53:33;;;;;;;0.30;0.30;;;;;;;17.30;34.86;101092.63;5004790;28;20018;-70
2023/05/09 06:55:58;;;;;;;0.40;0.40;;;;;;;16.96;35.44;101088.22;5021637;23;20221;-72
2023/05/09 06:58:24;;;;;;;0.20;0.20;;;;;;;16.82;36.02;101093.81;5010377;23;20046;-69
2023/05/09 07:00:50;;;;;;;0.20;0.20;;;;;;;17.31;35.53;101075.13;5003472;28;20105;-66
2023/05/09 07:03:15;;;;;;;0.25;0.25;;;;;;;17.80;33.17;101057.19;5017710;23;20586;-72
2023/05/09 07:05:41;;;;;;;1.48;1.38;;;;;;;17.11;34.43;101083.53;5003453;28;20019;-70
2023/05/09 07:08:06;;;;;;;0.30;0.30;;;;;;;16.98;35.59;101078.56;5002467;28;20049;-69
2023/05/09 07:10:32;;;;;;;0.20;0.20;;;;;;;17.40;34.71;101063.53;5001714;23;20066;-67
2023/05/09 07:12:57;;;;;;;0.40;0.40;;;;;;;18.19;32.30;101074.50;4998843;23;20042;-65
2023/05/09 07:15:23;;;;;;;0.20;0.20;;;;;;;17.92;32.56;101060.38;5009245;23;20046;-69
2023/05/09 07:17:48;;;;;;;0.55;0.55;;;;;;;17.77;32.63;101054.66;5001561;28;20036;-70
2023/05/09 07:20:13;;;;;;;0.30;0.30;;;;;;;17.74;32.18;101052.13;5002372;28;20037;-68
2023/05/09 07:22:39;;;;;;;0.30;0.30;;;;;;;17.42;32.96;101051.22;5003198;28;20042;-68
2023/05/09 07:25:07;;;;;;;0.28;0.28;;;;;;;17.84;32.42;101045.69;5003579;28;20216;-70
2023/05/09 07:27:32;;;;;;;0.20;0.20;;;;;;;17.70;32.40;101058.34;4972015;23;1133882;-65
2023/05/09 07:29:57;;;;;;;0.40;0.40;;;;;;;17.64;32.10;101040.13;5003293;28;20031;-67
2023/05/09 07:32:23;;;;;;;0.50;0.50;;;;;;;17.14;33.37;101060.69;5012643;23;20018;-68
2023/05/09 07:34:48;;;;;;;0.20;0.20;;;;;;;17.26;33.74;101045.53;4984044;28;20042;-69
2023/05/09 07:37:14;;;;;;;0.30;0.30;;;;;;;17.75;32.55;101027.56;5003820;28;20022;-68
2023/05/09 07:39:39;;;;;;;1.17;1.10;;;;;;;17.65;32.59;101036.63;5004381;28;20030;-67
2023/05/09 07:42:05;;;;;;;0.22;0.22;;;;;;;18.18;31.42;101035.09;4987009;28;20037;-68
2023/05/09 07:44:30;;;;;;;0.20;0.20;;;;;;;17.75;32.46;101042.47;5004254;28;20610;-68
2023/05/09 07:46:58;;;;;;;0.20;0.20;;;;;;;17.80;32.43;101014.31;5004365;28;20026;-68
2023/05/09 07:49:24;;;;;;;0.20;0.20;;;;;;;18.27;31.78;101021.72;4986631;28;20023;-68
2023/05/09 07:51:50;;;;;;;0.28;0.28;;;;;;;18.46;30.49;101018.50;5004009;28;20051;-67
2023/05/09 07:54:15;;;;;;;0.20;0.20;;;;;;;17.99;31.45;101004.13;4995735;23;20370;-65
2023/05/09 07:56:41;;;;;;;0.30;0.30;;;;;;;17.88;31.05;100995.69;5013461;23;20027;-70
2023/05/09 07:59:06;;;;;;;0.20;0.20;;;;;;;17.63;31.67;101010.41;4989291;28;20045;-70
2023/05/09 08:01:32;;;;;;;0.20;0.20;;;;;;;17.87;31.88;101007.97;5006996;28;20049;-69
2023/05/09 08:03:57;;;;;;;0.25;0.25;;;;;;;18.32;29.83;100992.66;5007490;28;20081;-70
2023/05/09 08:06:22;;;;;;;0.35;0.35;;;;;;;17.83;30.86;100999.31;5007317;28;20520;-69
2023/05/09 08:08:48;;;;;;;0.35;0.35;;;;;;;18.47;29.38;100999.19;5007552;28;20022;-70
2023/05/09 08:11:13;;;;;;;0.20;0.20;;;;;;;18.35;29.05;101016.22;5007725;28;20076;-69
2023/05/09 08:13:39;;;;;;;0.20;0.20;;;;;;;18.31;30.17;101006.69;5007460;28;20046;-69
2023/05/09 08:16:04;;;;;;;0.20;0.20;;;;;;;18.90;29.83;100988.13;5007322;28;20097;-70
2023/05/09 08:18:30;;;;;;;0.30;0.30;;;;;;;19.35;27.88;100969.94;5007479;28;20449;-69
2023/05/09 08:20:57;;;;;;;0.20;0.20;;;;;;;18.89;28.69;100983.78;5007068;28;20026;-70
2023/05/09 08:23:22;;;;;;;0.30;0.30;;;;;;;18.78;29.31;100998.19;5007207;28;20025;-70
2023/05/09 08:25:57;;;;;;;0.32;0.32;;;;;;;19.07;29.63;100988.41;5012461;23;20074;-67
2023/05/09 08:28:48;;;;;;;0.20;0.20;;;;;;;19.64;28.28;100989.09;5016295;23;20061;-66
2023/05/09 08:33:47;;;;;;;0.20;0.20;;;;;;;20.41;26.67;100981.78;4995091;23;20046;-70
2023/05/09 08:36:13;;;;;;;0.30;0.30;;;;;;;20.70;26.73;100977.06;5005800;28;20041;-70
2023/05/09 08:38:39;;;;;;;0.22;0.22;;;;;;;21.00;26.05;100976.72;4989298;28;20114;-69
2023/05/09 08:41:05;;;;;;;0.20;0.20;;;;;;;20.99;26.27;100960.94;5018682;23;20062;-68
2023/05/09 08:43:32;;;;;;;0.32;0.32;;;;;;;21.30;26.53;100964.84;4986422;28;20085;-67
2023/05/09 08:46:00;;;;;;;0.20;0.20;;;;;;;21.80;24.21;100967.94;4986918;28;20023;-67
2023/05/09 08:48:27;;;;;;;0.30;0.30;;;;;;;21.21;25.07;100965.28;4987375;28;20066;-69
2023/05/09 08:50:54;;;;;;;0.20;0.20;;;;;;;21.11;25.79;100970.09;5006204;23;20058;-70
2023/05/09 08:53:21;;;;;;;0.20;0.20;;;;;;;21.40;25.62;100965.31;5005765;28;20022;-70
2023/05/09 08:55:47;;;;;;;0.20;0.20;;;;;;;;;;5006492;28;20380;-70
2023/05/09 08:58:13;;;;;;;0.20;0.20;;;;;;;21.78;24.96;100960.06;5006577;28;20613;-69
2023/05/09 09:00:40;;;;;;;0.20;0.20;;;;;;;22.10;25.11;100961.25;5011837;23;20050;-66
2023/05/09 09:03:06;;;;;;;0.65;0.60;;;;;;;22.66;24.37;100971.75;5012518;23;20038;-70
2023/05/09 09:05:35;;;;;;;0.60;0.60;;;;;;;22.88;23.58;100970.66;4986909;28;20054;-70
2023/05/09 09:08:02;;;;;;;0.90;0.90;;;;;;;22.89;23.65;100962.63;5006336;28;20040;-70
2023/05/09 09:10:30;;;;;;;1.48;1.38;;;;;;;22.98;23.29;100965.75;5006302;28;20030;-69
2023/05/09 09:12:57;;;;;;;0.20;0.20;;;;;;;22.94;22.10;100961.56;5019280;23;20018;-66
2023/05/09 09:17:55;;;;;;;0.95;0.68;;;;;;;23.08;21.94;100967.00;5003628;28;20065;-68
2023/05/09 09:22:47;;;;;;;0.20;0.20;;;;;;;22.58;22.31;100971.25;5012842;23;20125;-68
2023/05/09 09:25:12;;;;;;;0.20;0.20;;;;;;;22.69;21.86;100963.66;4992229;23;20051;-70
2023/05/09 09:27:37;;;;;;;0.20;0.20;;;;;;;22.95;21.36;100963.25;4985593;28;20090;-69
2023/05/09 09:30:10;;;;;;;0.20;0.20;;;;;;;22.99;20.79;100957.72;4968333;28;20122;-70
2023/05/09 09:32:38;;;;;;;0.30;0.30;;;;;;;22.54;21.75;100950.25;4986415;28;20026;-70
2023/05/09 09:35:09;;;;;;;0.30;0.30;;;;;;;22.76;21.66;100951.81;4984988;28;20031;-70
2023/05/09 09:37:39;;;;;;;0.20;0.20;;;;;;;22.97;21.69;100946.34;4986414;28;20035;-69
2023/05/09 09:40:10;;;;;;;0.20;0.20;;;;;;;23.31;21.83;100940.22;4986353;28;20409;-70
2023/05/09 09:42:47;;;;;;;0.10;0.10;;;;;;;23.66;21.29;100941.91;4986461;28;20407;-69
2023/05/09 09:45:47;;;;;;;0.75;0.75;;;;;;;23.73;20.88;100938.81;4979946;23;20272;-69
2023/05/09 09:48:12;;;;;;;0.20;0.20;;;;;;;23.91;21.10;100933.44;5004843;23;20093;-69
2023/05/09 09:50:38;;;;;;;0.10;0.10;;;;;;;24.52;20.02;100922.03;5004273;28;20022;-69
2023/05/09 09:53:03;;;;;;;0.10;0.10;;;;;;;24.16;18.47;100931.19;5004919;28;20025;-69
2023/05/09 09:55:29;;;;;;;0.20;0.20;;;;;;;22.98;19.32;100929.53;5005349;28;20550;-69
2023/05/09 09:57:54;;;;;;;0.20;0.20;;;;;;;22.25;19.68;100902.31;5015694;23;20050;-69
2023/05/09 10:00:27;;;;;;;0.20;0.20;;;;;;;21.30;20.85;100918.19;5012061;23;20078;-69
2023/05/09 10:02:57;;;;;;;1.85;1.50;;;;;;;21.25;21.44;100912.25;5018202;23;20552;-65
2023/05/09 10:05:28;;;;;;;0.30;0.30;;;;;;;21.15;21.92;100917.09;5022780;23;20057;-64
2023/05/09 10:08:13;;;;;;;0.20;0.20;;;;;;;21.44;22.04;100903.47;5021072;23;20065;-67
2023/05/09 10:10:39;;;;;;;0.28;0.28;;;;;;;22.32;21.56;100904.66;5011106;23;20050;-70
2023/05/09 10:13:08;;;;;;;0.20;0.20;;;;;;;22.59;20.72;100893.63;4986903;28;20475;-69
2023/05/09 10:15:35;;;;;;;0.20;0.20;;;;;;;22.63;20.55;100901.34;5005075;28;20030;-69
2023/05/09 10:18:03;;;;;;;0.20;0.20;;;;;;;22.83;20.92;100898.59;5004329;28;20026;-70
2023/05/09 10:20:29;;;;;;;0.20;0.20;;;;;;;22.95;20.11;100912.97;5005065;28;20053;-70
2023/05/09 10:22:57;;;;;;;0.63;0.63;;;;;;;22.92;20.17;100891.94;5011518;23;20050;-68
2023/05/09 10:25:45;;;;;;;0.47;0.47;;;;;;;22.91;20.76;100901.66;5010809;23;20073;-69
2023/05/09 10:28:13;;;;;;;0.20;0.20;;;;;;;23.38;20.54;100915.09;5000423;23;20047;-66
2023/05/09 10:30:54;;;;;;;0.20;0.20;;;;;;;23.61;18.88;100895.28;4984552;28;20050;-66
2023/05/09 10:33:25;;;;;;;0.20;0.20;;;;;;;23.21;19.22;100889.53;4979354;23;20415;-69
2023/05/09 10:35:51;;;;;;;0.20;0.20;;;;;;;22.87;19.51;100886.91;5003825;28;20034;-69
2023/05/09 10:38:17;;;;;;;0.20;0.20;;;;;;;22.87;19.97;100871.00;5004337;28;20529;-68
2023/05/09 10:40:46;;;;;;;0.20;0.20;;;;;;;22.79;18.86;100876.72;5005191;28;20464;-67
2023/05/09 10:43:13;;;;;;;0.20;0.20;;;;;;;21.94;19.24;100872.13;5004997;28;20023;-67
2023/05/09 10:45:39;;;;;;;0.43;0.40;;;;;;;21.66;20.30;100865.50;5004570;28;20086;-67
2023/05/09 10:48:07;;;;;;;0.65;0.65;;;;;;;22.32;19.28;100860.53;5011523;23;20050;-65
2023/05/09 10:50:34;;;;;;;0.45;0.45;;;;;;;22.26;19.66;100864.38;5003370;28;20023;-67
2023/05/09 10:53:07;;;;;;;26.40;2.28;;;;;;;22.15;20.32;100849.06;4986934;28;20157;-65
2023/05/09 10:55:54;;;;;;;0.30;0.30;;;;;;;21.76;20.61;100863.25;5011223;23;20101;-69
2023/05/09 10:58:32;;;;;;;0.65;0.65;;;;;;;21.11;21.83;100846.03;5002368;28;20109;-69
2023/05/09 11:00:59;;;;;;;0.20;0.20;;;;;;;20.98;21.61;100849.22;5003607;28;20026;-70
2023/05/09 11:03:27;;;;;;;0.20;0.20;;;;;;;20.38;22.48;100856.22;5011676;23;20116;-68
2023/05/09 11:05:54;;;;;;;0.13;0.13;;;;;;;20.03;22.41;100853.25;5014254;23;20561;-69
2023/05/09 11:08:32;;;;;;;0.55;0.55;;;;;;;19.90;22.63;100845.84;5002749;28;20027;-69
2023/05/09 11:11:04;;;;;;;0.20;0.20;;;;;;;20.00;22.75;100850.72;4985919;28;20467;-70
2023/05/09 11:13:31;;;;;;;0.20;0.20;;;;;;;19.66;23.68;100848.53;5003541;28;20035;-69
2023/05/09 11:15:59;;;;;;;0.20;0.20;;;;;;;19.72;24.24;100851.81;5003533;28;20027;-70
2023/05/09 11:18:24;;;;;;;0.30;0.30;;;;;;;19.74;23.85;100832.44;5016410;23;20018;-66
2023/05/09 11:20:50;;;;;;;0.43;0.43;;;;;;;19.63;24.10;100845.16;5008780;23;20046;-69
2023/05/09 11:23:20;;;;;;;0.20;0.20;;;;;;;19.26;24.76;100848.31;5009854;23;20050;-65
2023/05/09 11:25:47;;;;;;;0.20;0.20;;;;;;;18.94;25.15;100847.69;5020828;23;20046;-65
2023/05/09 11:28:35;;;;;;;0.20;0.20;;;;;;;19.16;24.83;100836.41;5021645;23;20066;-65
2023/05/09 11:31:17;;;;;;;0.40;0.40;;;;;;;19.03;24.36;100857.88;4986799;28;20038;-66
2023/05/09 11:33:45;;;;;;;0.20;0.20;;;;;;;18.76;24.58;100843.97;4987487;28;20043;-64
2023/05/09 11:38:43;;;;;;;0.20;0.20;;;;;;;18.57;24.52;100842.84;5013637;23;20064;-67
2023/05/09 11:41:08;;;;;;;0.20;0.20;;;;;;;18.43;24.53;100824.94;5016016;23;20054;-66
2023/05/09 11:43:36;;;;;;;0.20;0.20;;;;;;;18.49;24.27;100838.75;5007200;28;20131;-66